sensor_id;sensor_type;location;lat;lon;timestamp;pressure;altitude;pressure_sealevel;temperature;humidity
27840;BME280;15207;42.182;24.308;2022-07-09T00:01:59;98954.69;;;19.95;100.00
27840;BME280;15207;42.182;24.308;2022-07-09T00:04:25;98958.00;;;19.91;100.00
27840;BME280;15207;42.182;24.308;2022-07-09T00:06:51;98950.78;;;19.83;100.00
27840;BME280;15207;42.182;24.308;2022-07-09T00:09:16;98945.34;;;19.83;100.00
27840;BME280;15207;42.182;24.308;2022-07-09T00:11:42;98936.19;;;19.69;100.00
27840;BME280;15207;42.182;24.308;2022-07-09T00:14:07;98925.19;;;19.55;100.00
27840;BME280;15207;42.182;24.308;2022-07-09T00:16:33;98924.13;;;19.41;100.00
27840;BME280;15207;42.182;24.308;2022-07-09T00:18:58;98910.47;;;19.35;100.00
27840;BME280;15207;42.182;24.308;2022-07-09T00:21:24;98921.72;;;19.32;100.00
27840;BME280;15207;42.182;24.308;2022-07-09T00:23:49;98919.28;;;19.37;100.00
27840;BME280;15207;42.182;24.308;2022-07-09T00:26:15;98918.91;;;19.40;100.00
27840;BME280;15207;42.182;24.308;2022-07-09T00:28:41;98925.19;;;19.40;100.00
27840;BME280;15207;42.182;24.308;2022-07-09T00:31:07;98928.81;;;19.48;100.00
27840;BME280;15207;42.182;24.308;2022-07-09T00:33:33;98918.31;;;19.60;100.00
27840;BME280;15207;42.182;24.308;2022-07-09T00:35:59;98911.38;;;19.72;100.00
27840;BME280;15207;42.182;24.308;2022-07-09T00:38:24;98921.91;;;19.82;100.00
27840;BME280;15207;42.182;24.308;2022-07-09T00:40:50;98919.28;;;19.89;100.00
27840;BME280;15207;42.182;24.308;2022-07-09T00:43:21;98923.50;;;19.91;100.00
27840;BME280;15207;42.182;24.308;2022-07-09T00:45:48;98916.66;;;19.95;100.00
27840;BME280;15207;42.182;24.308;2022-07-09T00:48:14;98909.34;;;19.96;100.00
27840;BME280;15207;42.182;24.308;2022-07-09T00:50:42;98906.06;;;20.01;100.00
27840;BME280;15207;42.182;24.308;2022-07-09T00:53:15;98904.09;;;19.94;100.00
27840;BME280;15207;42.182;24.308;2022-07-09T00:55:43;98897.06;;;20.00;100.00
27840;BME280;15207;42.182;24.308;2022-07-09T00:58:11;98897.72;;;20.02;100.00
27840;BME280;15207;42.182;24.308;2022-07-09T01:00:38;98887.06;;;20.01;100.00
27840;BME280;15207;42.182;24.308;2022-07-09T01:03:04;98878.25;;;19.99;100.00
27840;BME280;15207;42.182;24.308;2022-07-09T01:05:29;98881.31;;;19.95;100.00
27840;BME280;15207;42.182;24.308;2022-07-09T01:08:04;98870.97;;;19.84;100.00
27840;BME280;15207;42.182;24.308;2022-07-09T01:10:35;98872.19;;;19.81;100.00
27840;BME280;15207;42.182;24.308;2022-07-09T01:13:01;98869.00;;;19.78;100.00
27840;BME280;15207;42.182;24.308;2022-07-09T01:15:28;98874.13;;;19.66;100.00
27840;BME280;15207;42.182;24.308;2022-07-09T01:17:54;98872.38;;;19.58;100.00
27840;BME280;15207;42.182;24.308;2022-07-09T01:20:39;98875.72;;;19.60;100.00
27840;BME280;15207;42.182;24.308;2022-07-09T01:23:05;98869.66;;;19.58;100.00
27840;BME280;15207;42.182;24.308;2022-07-09T01:25:38;98867.84;;;19.50;100.00
27840;BME280;15207;42.182;24.308;2022-07-09T01:28:05;98872.66;;;19.48;100.00
27840;BME280;15207;42.182;24.308;2022-07-09T01:30:32;98866.00;;;19.51;100.00
27840;BME280;15207;42.182;24.308;2022-07-09T01:32:59;98867.41;;;19.47;100.00
27840;BME280;15207;42.182;24.308;2022-07-09T01:35:25;98863.50;;;19.34;100.00
27840;BME280;15207;42.182;24.308;2022-07-09T01:37:51;98864.06;;;19.29;100.00
27840;BME280;15207;42.182;24.308;2022-07-09T01:40:17;98861.56;;;19.28;100.00
27840;BME280;15207;42.182;24.308;2022-07-09T01:42:43;98864.22;;;19.43;100.00
27840;BME280;15207;42.182;24.308;2022-07-09T01:45:09;98866.00;;;19.51;100.00
27840;BME280;15207;42.182;24.308;2022-07-09T01:47:35;98871.78;;;19.48;100.00
27840;BME280;15207;42.182;24.308;2022-07-09T01:50:00;98876.59;;;19.46;100.00
27840;BME280;15207;42.182;24.308;2022-07-09T01:52:28;98878.84;;;19.42;100.00
27840;BME280;15207;42.182;24.308;2022-07-09T01:54:54;98878.84;;;19.42;100.00
27840;BME280;15207;42.182;24.308;2022-07-09T01:57:20;98883.22;;;19.43;100.00
27840;BME280;15207;42.182;24.308;2022-07-09T01:59:45;98877.91;;;19.50;100.00
27840;BME280;15207;42.182;24.308;2022-07-09T02:02:11;98870.19;;;19.53;100.00
27840;BME280;15207;42.182;24.308;2022-07-09T02:04:36;98876.31;;;19.55;100.00
27840;BME280;15207;42.182;24.308;2022-07-09T02:07:02;98884.50;;;19.62;100.00
27840;BME280;15207;42.182;24.308;2022-07-09T02:09:28;98879.34;;;19.67;100.00
27840;BME280;15207;42.182;24.308;2022-07-09T02:11:54;98883.09;;;19.66;100.00
27840;BME280;15207;42.182;24.308;2022-07-09T02:14:20;98881.78;;;19.62;100.00
27840;BME280;15207;42.182;24.308;2022-07-09T02:16:45;98868.78;;;19.58;100.00
27840;BME280;15207;42.182;24.308;2022-07-09T02:19:11;98878.53;;;19.52;100.00
27840;BME280;15207;42.182;24.308;2022-07-09T02:21:37;98866.84;;;19.51;100.00
27840;BME280;15207;42.182;24.308;2022-07-09T02:24:02;98863.94;;;19.53;100.00
27840;BME280;15207;42.182;24.308;2022-07-09T02:26:28;98874.59;;;19.54;100.00
27840;BME280;15207;42.182;24.308;2022-07-09T02:28:55;98868.91;;;19.49;100.00
27840;BME280;15207;42.182;24.308;2022-07-09T02:31:20;98873.09;;;19.52;100.00
27840;BME280;15207;42.182;24.308;2022-07-09T02:33:46;98886.69;;;19.52;100.00
27840;BME280;15207;42.182;24.308;2022-07-09T02:36:12;98876.22;;;19.49;100.00
27840;BME280;15207;42.182;24.308;2022-07-09T02:38:38;98880.34;;;19.45;100.00
27840;BME280;15207;42.182;24.308;2022-07-09T02:41:03;98875.72;;;19.45;100.00
27840;BME280;15207;42.182;24.308;2022-07-09T02:43:29;98878.44;;;19.45;100.00
27840;BME280;15207;42.182;24.308;2022-07-09T02:45:55;98879.13;;;19.47;100.00
27840;BME280;15207;42.182;24.308;2022-07-09T02:48:24;98871.25;;;19.52;100.00
27840;BME280;15207;42.182;24.308;2022-07-09T02:50:51;98858.69;;;19.51;100.00
27840;BME280;15207;42.182;24.308;2022-07-09T02:53:17;98863.28;;;19.51;100.00
27840;BME280;15207;42.182;24.308;2022-07-09T02:55:43;98873.59;;;19.55;100.00
27840;BME280;15207;42.182;24.308;2022-07-09T02:58:09;98876.94;;;19.58;100.00
27840;BME280;15207;42.182;24.308;2022-07-09T03:00:36;98870.28;;;19.60;100.00
27840;BME280;15207;42.182;24.308;2022-07-09T03:03:02;98874.13;;;19.51;100.00
27840;BME280;15207;42.182;24.308;2022-07-09T03:05:28;98873.22;;;19.43;100.00
27840;BME280;15207;42.182;24.308;2022-07-09T03:07:53;98868.44;;;19.46;100.00
27840;BME280;15207;42.182;24.308;2022-07-09T03:10:19;98873.28;;;19.50;100.00
27840;BME280;15207;42.182;24.308;2022-07-09T03:12:45;98866.53;;;19.61;100.00
27840;BME280;15207;42.182;24.308;2022-07-09T03:15:10;98865.22;;;19.57;100.00
27840;BME280;15207;42.182;24.308;2022-07-09T03:17:38;98864.25;;;19.65;100.00
27840;BME280;15207;42.182;24.308;2022-07-09T03:20:04;98872.03;;;19.68;100.00
27840;BME280;15207;42.182;24.308;2022-07-09T03:22:30;98870.19;;;19.68;100.00
27840;BME280;15207;42.182;24.308;2022-07-09T03:24:56;98872.75;;;19.77;100.00
27840;BME280;15207;42.182;24.308;2022-07-09T03:27:22;98888.00;;;19.78;100.00
27840;BME280;15207;42.182;24.308;2022-07-09T03:29:47;98884.47;;;19.77;100.00
27840;BME280;15207;42.182;24.308;2022-07-09T03:32:13;98883.81;;;19.75;100.00
27840;BME280;15207;42.182;24.308;2022-07-09T03:34:39;98889.25;;;19.75;100.00
27840;BME280;15207;42.182;24.308;2022-07-09T03:37:05;98879.22;;;19.76;100.00
27840;BME280;15207;42.182;24.308;2022-07-09T03:39:30;98879.03;;;19.77;100.00
27840;BME280;15207;42.182;24.308;2022-07-09T03:41:56;98878.00;;;19.78;100.00
27840;BME280;15207;42.182;24.308;2022-07-09T03:44:22;98885.13;;;19.79;100.00
27840;BME280;15207;42.182;24.308;2022-07-09T03:46:47;98894.66;;;19.75;100.00
27840;BME280;15207;42.182;24.308;2022-07-09T03:49:13;98894.56;;;19.83;100.00
27840;BME280;15207;42.182;24.308;2022-07-09T03:51:38;98892.56;;;19.92;100.00
27840;BME280;15207;42.182;24.308;2022-07-09T03:54:04;98883.31;;;19.87;100.00
27840;BME280;15207;42.182;24.308;2022-07-09T03:56:30;98889.13;;;19.83;100.00
27840;BME280;15207;42.182;24.308;2022-07-09T03:58:55;98890.44;;;19.88;100.00
27840;BME280;15207;42.182;24.308;2022-07-09T04:01:21;98888.31;;;19.83;100.00
27840;BME280;15207;42.182;24.308;2022-07-09T04:03:46;98884.56;;;19.84;100.00
27840;BME280;15207;42.182;24.308;2022-07-09T04:06:12;98887.72;;;19.88;100.00
27840;BME280;15207;42.182;24.308;2022-07-09T04:08:37;98879.84;;;19.93;100.00
27840;BME280;15207;42.182;24.308;2022-07-09T04:11:03;98882.19;;;19.96;100.00
27840;BME280;15207;42.182;24.308;2022-07-09T04:13:29;98885.00;;;19.88;99.31
27840;BME280;15207;42.182;24.308;2022-07-09T04:15:55;98883.97;;;19.89;99.60
27840;BME280;15207;42.182;24.308;2022-07-09T04:18:20;98898.13;;;19.84;100.00
27840;BME280;15207;42.182;24.308;2022-07-09T04:20:46;98896.50;;;19.90;100.00
27840;BME280;15207;42.182;24.308;2022-07-09T04:23:12;98886.94;;;19.94;100.00
27840;BME280;15207;42.182;24.308;2022-07-09T04:25:37;98901.88;;;19.98;98.84
27840;BME280;15207;42.182;24.308;2022-07-09T04:28:03;98899.03;;;20.06;99.23
27840;BME280;15207;42.182;24.308;2022-07-09T04:30:30;98889.47;;;20.11;100.00
27840;BME280;15207;42.182;24.308;2022-07-09T04:32:56;98891.78;;;20.14;97.72
27840;BME280;15207;42.182;24.308;2022-07-09T04:35:21;98895.72;;;20.11;96.81
27840;BME280;15207;42.182;24.308;2022-07-09T04:37:47;98894.50;;;20.14;95.93
27840;BME280;15207;42.182;24.308;2022-07-09T04:40:13;98892.69;;;20.21;96.03
27840;BME280;15207;42.182;24.308;2022-07-09T04:42:38;98902.53;;;20.22;94.53
27840;BME280;15207;42.182;24.308;2022-07-09T04:45:04;98902.59;;;20.29;96.35
27840;BME280;15207;42.182;24.308;2022-07-09T04:47:30;98897.88;;;20.16;93.79
27840;BME280;15207;42.182;24.308;2022-07-09T04:49:55;98903.31;;;20.16;95.60
27840;BME280;15207;42.182;24.308;2022-07-09T04:52:21;98900.78;;;20.14;93.57
27840;BME280;15207;42.182;24.308;2022-07-09T04:54:46;98897.28;;;20.20;94.06
27840;BME280;15207;42.182;24.308;2022-07-09T04:57:12;98893.78;;;20.27;94.68
27840;BME280;15207;42.182;24.308;2022-07-09T04:59:38;98901.16;;;20.33;93.03
27840;BME280;15207;42.182;24.308;2022-07-09T05:02:04;98895.97;;;20.38;93.17
27840;BME280;15207;42.182;24.308;2022-07-09T05:04:30;98897.97;;;20.51;91.93
27840;BME280;15207;42.182;24.308;2022-07-09T05:06:55;98900.28;;;20.54;90.93
27840;BME280;15207;42.182;24.308;2022-07-09T05:09:21;98891.56;;;20.59;91.50
27840;BME280;15207;42.182;24.308;2022-07-09T05:11:46;98893.34;;;20.73;89.76
27840;BME280;15207;42.182;24.308;2022-07-09T05:14:13;98891.69;;;20.79;88.95
27840;BME280;15207;42.182;24.308;2022-07-09T05:16:38;98888.06;;;20.94;88.86
27840;BME280;15207;42.182;24.308;2022-07-09T05:19:10;98897.69;;;20.96;88.74
27840;BME280;15207;42.182;24.308;2022-07-09T05:21:38;98901.91;;;20.99;87.68
27840;BME280;15207;42.182;24.308;2022-07-09T05:24:04;98892.69;;;21.00;87.06
27840;BME280;15207;42.182;24.308;2022-07-09T05:26:35;98904.03;;;21.04;86.57
27840;BME280;15207;42.182;24.308;2022-07-09T05:29:02;98895.06;;;21.10;86.86
27840;BME280;15207;42.182;24.308;2022-07-09T05:31:28;98892.59;;;21.15;85.81
27840;BME280;15207;42.182;24.308;2022-07-09T05:33:54;98898.03;;;21.15;85.44
27840;BME280;15207;42.182;24.308;2022-07-09T05:36:19;98902.22;;;21.18;84.50
27840;BME280;15207;42.182;24.308;2022-07-09T05:38:45;98902.28;;;21.24;86.02
27840;BME280;15207;42.182;24.308;2022-07-09T05:41:11;98900.63;;;21.30;85.11
27840;BME280;15207;42.182;24.308;2022-07-09T05:43:36;98902.13;;;21.39;84.35
27840;BME280;15207;42.182;24.308;2022-07-09T05:46:02;98900.44;;;21.38;83.75
27840;BME280;15207;42.182;24.308;2022-07-09T05:48:28;98895.47;;;21.49;84.17
27840;BME280;15207;42.182;24.308;2022-07-09T05:50:54;98900.09;;;21.55;83.86
27840;BME280;15207;42.182;24.308;2022-07-09T05:53:20;98897.00;;;21.65;82.95
27840;BME280;15207;42.182;24.308;2022-07-09T05:55:46;98894.72;;;21.69;82.82
27840;BME280;15207;42.182;24.308;2022-07-09T05:58:12;98893.31;;;21.86;83.46
27840;BME280;15207;42.182;24.308;2022-07-09T06:00:37;98893.56;;;21.98;82.42
27840;BME280;15207;42.182;24.308;2022-07-09T06:03:03;98889.59;;;22.01;81.41
27840;BME280;15207;42.182;24.308;2022-07-09T06:05:29;98892.53;;;22.13;79.65
27840;BME280;15207;42.182;24.308;2022-07-09T06:07:55;98892.78;;;22.31;79.20
27840;BME280;15207;42.182;24.308;2022-07-09T06:10:21;98891.75;;;22.39;78.43
27840;BME280;15207;42.182;24.308;2022-07-09T06:12:46;98893.41;;;22.33;77.86
27840;BME280;15207;42.182;24.308;2022-07-09T06:15:12;98884.59;;;22.38;78.20
27840;BME280;15207;42.182;24.308;2022-07-09T06:17:38;98884.81;;;22.43;78.64
27840;BME280;15207;42.182;24.308;2022-07-09T06:20:05;98885.06;;;22.55;76.97
27840;BME280;15207;42.182;24.308;2022-07-09T06:22:30;98881.50;;;22.68;80.34
27840;BME280;15207;42.182;24.308;2022-07-09T06:24:56;98889.22;;;22.71;75.41
27840;BME280;15207;42.182;24.308;2022-07-09T06:27:22;98888.22;;;22.66;76.50
27840;BME280;15207;42.182;24.308;2022-07-09T06:29:48;98880.22;;;22.64;76.45
27840;BME280;15207;42.182;24.308;2022-07-09T06:32:14;98881.06;;;22.65;76.30
27840;BME280;15207;42.182;24.308;2022-07-09T06:34:40;98872.66;;;22.53;75.29
27840;BME280;15207;42.182;24.308;2022-07-09T06:37:06;98876.03;;;22.55;75.79
27840;BME280;15207;42.182;24.308;2022-07-09T06:39:31;98875.63;;;22.65;77.12
27840;BME280;15207;42.182;24.308;2022-07-09T06:42:18;98869.09;;;22.72;74.77
27840;BME280;15207;42.182;24.308;2022-07-09T06:44:44;98863.66;;;22.72;76.05
27840;BME280;15207;42.182;24.308;2022-07-09T06:47:10;98866.13;;;22.81;77.31
27840;BME280;15207;42.182;24.308;2022-07-09T06:49:36;98872.84;;;22.92;76.18
27840;BME280;15207;42.182;24.308;2022-07-09T06:52:03;98871.38;;;22.89;76.38
27840;BME280;15207;42.182;24.308;2022-07-09T06:54:28;98870.13;;;22.92;77.04
27840;BME280;15207;42.182;24.308;2022-07-09T06:56:54;98875.56;;;22.92;75.52
27840;BME280;15207;42.182;24.308;2022-07-09T06:59:21;98869.25;;;22.91;73.99
27840;BME280;15207;42.182;24.308;2022-07-09T07:01:48;98863.81;;;22.91;72.50
27840;BME280;15207;42.182;24.308;2022-07-09T07:04:13;98867.38;;;22.92;72.82
27840;BME280;15207;42.182;24.308;2022-07-09T07:06:41;98863.59;;;22.86;72.52
27840;BME280;15207;42.182;24.308;2022-07-09T07:09:06;98860.47;;;22.89;74.06
27840;BME280;15207;42.182;24.308;2022-07-09T07:11:32;98853.13;;;22.90;74.53
27840;BME280;15207;42.182;24.308;2022-07-09T07:13:58;98865.47;;;23.06;74.21
27840;BME280;15207;42.182;24.308;2022-07-09T07:16:23;98866.69;;;23.17;73.62
27840;BME280;15207;42.182;24.308;2022-07-09T07:18:49;98864.16;;;23.22;72.70
27840;BME280;15207;42.182;24.308;2022-07-09T07:21:14;98861.41;;;23.29;73.21
27840;BME280;15207;42.182;24.308;2022-07-09T07:23:40;98862.50;;;23.21;72.57
27840;BME280;15207;42.182;24.308;2022-07-09T07:26:06;98863.31;;;23.21;72.79
27840;BME280;15207;42.182;24.308;2022-07-09T07:28:33;98868.56;;;23.23;70.57
27840;BME280;15207;42.182;24.308;2022-07-09T07:30:58;98863.56;;;23.13;71.12
27840;BME280;15207;42.182;24.308;2022-07-09T07:33:24;98857.44;;;23.18;70.32
27840;BME280;15207;42.182;24.308;2022-07-09T07:35:50;98867.47;;;23.31;70.60
27840;BME280;15207;42.182;24.308;2022-07-09T07:38:15;98869.31;;;23.50;71.63
27840;BME280;15207;42.182;24.308;2022-07-09T07:40:41;98859.78;;;23.73;71.14
27840;BME280;15207;42.182;24.308;2022-07-09T07:43:10;98866.25;;;23.79;70.73
27840;BME280;15207;42.182;24.308;2022-07-09T07:45:36;98860.94;;;23.84;70.05
27840;BME280;15207;42.182;24.308;2022-07-09T07:48:02;98859.66;;;23.87;70.58
27840;BME280;15207;42.182;24.308;2022-07-09T07:50:29;98857.56;;;23.89;69.50
27840;BME280;15207;42.182;24.308;2022-07-09T07:52:54;98862.22;;;23.82;68.75
27840;BME280;15207;42.182;24.308;2022-07-09T07:55:20;98857.19;;;23.85;68.72
27840;BME280;15207;42.182;24.308;2022-07-09T07:57:46;98855.44;;;23.91;70.51
27840;BME280;15207;42.182;24.308;2022-07-09T08:00:11;98862.97;;;24.02;68.66
27840;BME280;15207;42.182;24.308;2022-07-09T08:02:37;98857.25;;;24.04;68.90
27840;BME280;15207;42.182;24.308;2022-07-09T08:05:03;98850.97;;;24.03;68.73
27840;BME280;15207;42.182;24.308;2022-07-09T08:07:30;98866.53;;;24.03;69.92
27840;BME280;15207;42.182;24.308;2022-07-09T08:09:56;98855.66;;;23.89;68.43
27840;BME280;15207;42.182;24.308;2022-07-09T08:12:22;98853.13;;;23.95;70.26
27840;BME280;15207;42.182;24.308;2022-07-09T08:14:47;98856.47;;;23.97;67.64
27840;BME280;15207;42.182;24.308;2022-07-09T08:17:13;98849.56;;;23.94;68.55
27840;BME280;15207;42.182;24.308;2022-07-09T08:19:39;98854.97;;;24.01;69.23
27840;BME280;15207;42.182;24.308;2022-07-09T08:22:04;98848.44;;;24.09;68.77
27840;BME280;15207;42.182;24.308;2022-07-09T08:24:30;98852.16;;;24.14;67.99
27840;BME280;15207;42.182;24.308;2022-07-09T08:26:55;98850.00;;;24.23;66.85
27840;BME280;15207;42.182;24.308;2022-07-09T08:29:22;98843.38;;;24.38;67.02
27840;BME280;15207;42.182;24.308;2022-07-09T08:31:47;98852.53;;;24.50;66.68
27840;BME280;15207;42.182;24.308;2022-07-09T08:34:15;98847.47;;;24.47;65.71
27840;BME280;15207;42.182;24.308;2022-07-09T08:36:40;98845.75;;;24.53;64.40
27840;BME280;15207;42.182;24.308;2022-07-09T08:39:06;98836.44;;;24.61;66.35
27840;BME280;15207;42.182;24.308;2022-07-09T08:41:32;98840.59;;;24.63;65.79
27840;BME280;15207;42.182;24.308;2022-07-09T08:43:58;98844.69;;;24.79;63.51
27840;BME280;15207;42.182;24.308;2022-07-09T08:46:24;98835.13;;;24.89;64.53
27840;BME280;15207;42.182;24.308;2022-07-09T08:48:50;98831.94;;;24.92;65.35
27840;BME280;15207;42.182;24.308;2022-07-09T08:51:17;98837.34;;;24.99;63.57
27840;BME280;15207;42.182;24.308;2022-07-09T08:53:44;98834.91;;;25.09;61.93
27840;BME280;15207;42.182;24.308;2022-07-09T08:56:10;98826.16;;;25.19;64.18
27840;BME280;15207;42.182;24.308;2022-07-09T08:58:38;98827.59;;;25.21;62.05
27840;BME280;15207;42.182;24.308;2022-07-09T09:01:04;98820.84;;;25.24;62.61
27840;BME280;15207;42.182;24.308;2022-07-09T09:03:32;98819.81;;;25.37;62.76
27840;BME280;15207;42.182;24.308;2022-07-09T09:06:08;98826.28;;;25.43;61.50
27840;BME280;15207;42.182;24.308;2022-07-09T09:08:42;98819.72;;;25.62;59.83
27840;BME280;15207;42.182;24.308;2022-07-09T09:11:14;98815.34;;;25.73;60.68
27840;BME280;15207;42.182;24.308;2022-07-09T09:13:41;98819.06;;;25.79;59.42
27840;BME280;15207;42.182;24.308;2022-07-09T09:16:08;98811.47;;;25.93;59.33
27840;BME280;15207;42.182;24.308;2022-07-09T09:19:01;98817.00;;;26.05;57.94
27840;BME280;15207;42.182;24.308;2022-07-09T09:21:28;98815.22;;;26.11;60.94
27840;BME280;15207;42.182;24.308;2022-07-09T09:23:56;98817.16;;;26.22;59.97
27840;BME280;15207;42.182;24.308;2022-07-09T09:26:28;98813.19;;;26.18;58.96
27840;BME280;15207;42.182;24.308;2022-07-09T09:29:01;98810.91;;;26.15;58.34
27840;BME280;15207;42.182;24.308;2022-07-09T09:31:35;98812.00;;;26.14;58.08
27840;BME280;15207;42.182;24.308;2022-07-09T09:34:13;98812.09;;;26.07;57.75
27840;BME280;15207;42.182;24.308;2022-07-09T09:36:46;98809.97;;;26.09;57.93
27840;BME280;15207;42.182;24.308;2022-07-09T09:39:13;98807.72;;;26.18;56.66
27840;BME280;15207;42.182;24.308;2022-07-09T09:41:40;98811.53;;;26.17;58.12
27840;BME280;15207;42.182;24.308;2022-07-09T09:44:08;98801.16;;;26.19;57.03
27840;BME280;15207;42.182;24.308;2022-07-09T09:46:37;98809.97;;;26.09;56.46
27840;BME280;15207;42.182;24.308;2022-07-09T09:49:04;98810.66;;;26.05;58.91
27840;BME280;15207;42.182;24.308;2022-07-09T09:54:10;98806.97;;;25.99;55.69
27840;BME280;15207;42.182;24.308;2022-07-09T09:56:38;98806.34;;;25.97;59.12
27840;BME280;15207;42.182;24.308;2022-07-09T09:59:03;98807.88;;;25.81;56.75
27840;BME280;15207;42.182;24.308;2022-07-09T10:01:29;98800.78;;;25.61;55.05
27840;BME280;15207;42.182;24.308;2022-07-09T10:03:56;98802.72;;;25.54;57.24
27840;BME280;15207;42.182;24.308;2022-07-09T10:06:21;98797.69;;;25.39;57.97
27840;BME280;15207;42.182;24.308;2022-07-09T10:08:47;98797.13;;;25.30;58.53
27840;BME280;15207;42.182;24.308;2022-07-09T10:11:13;98815.28;;;25.12;58.71
27840;BME280;15207;42.182;24.308;2022-07-09T10:13:59;98827.44;;;24.98;59.23
27840;BME280;15207;42.182;24.308;2022-07-09T10:16:35;98841.31;;;24.77;67.19
27840;BME280;15207;42.182;24.308;2022-07-09T10:19:01;98867.22;;;24.56;70.90
27840;BME280;15207;42.182;24.308;2022-07-09T10:21:34;98869.75;;;24.25;75.65
27840;BME280;15207;42.182;24.308;2022-07-09T10:24:01;98866.59;;;23.89;80.41
27840;BME280;15207;42.182;24.308;2022-07-09T10:29:17;98863.28;;;23.28;94.69
27840;BME280;15207;42.182;24.308;2022-07-09T10:31:43;98857.06;;;23.07;95.50
27840;BME280;15207;42.182;24.308;2022-07-09T10:34:19;98844.34;;;22.67;95.24
27840;BME280;15207;42.182;24.308;2022-07-09T10:37:00;98842.84;;;22.51;95.18
27840;BME280;15207;42.182;24.308;2022-07-09T10:39:26;98844.94;;;22.22;97.93
27840;BME280;15207;42.182;24.308;2022-07-09T10:42:03;98830.91;;;22.18;100.00
27840;BME280;15207;42.182;24.308;2022-07-09T10:44:34;98835.06;;;22.01;100.00
27840;BME280;15207;42.182;24.308;2022-07-09T10:47:00;98829.63;;;21.94;100.00
27840;BME280;15207;42.182;24.308;2022-07-09T10:49:27;98831.09;;;21.90;100.00
27840;BME280;15207;42.182;24.308;2022-07-09T10:51:57;98820.41;;;21.95;100.00
27840;BME280;15207;42.182;24.308;2022-07-09T10:54:24;98817.03;;;21.93;100.00
27840;BME280;15207;42.182;24.308;2022-07-09T10:56:51;98823.72;;;21.84;100.00
27840;BME280;15207;42.182;24.308;2022-07-09T10:59:17;98816.19;;;21.86;100.00
27840;BME280;15207;42.182;24.308;2022-07-09T11:01:44;98826.28;;;21.99;100.00
27840;BME280;15207;42.182;24.308;2022-07-09T11:04:09;98821.25;;;22.02;100.00
27840;BME280;15207;42.182;24.308;2022-07-09T11:06:47;98819.97;;;21.85;99.05
27840;BME280;15207;42.182;24.308;2022-07-09T11:09:14;98832.16;;;21.89;97.35
27840;BME280;15207;42.182;24.308;2022-07-09T11:11:43;98832.75;;;21.91;97.33
27840;BME280;15207;42.182;24.308;2022-07-09T11:14:12;98834.63;;;21.84;98.30
27840;BME280;15207;42.182;24.308;2022-07-09T11:16:38;98835.44;;;21.77;95.60
27840;BME280;15207;42.182;24.308;2022-07-09T11:19:18;98826.84;;;21.74;93.11
27840;BME280;15207;42.182;24.308;2022-07-09T11:21:44;98831.63;;;21.58;92.75
27840;BME280;15207;42.182;24.308;2022-07-09T11:24:19;98833.69;;;21.49;95.09
27840;BME280;15207;42.182;24.308;2022-07-09T11:26:47;98850.63;;;21.45;96.06
27840;BME280;15207;42.182;24.308;2022-07-09T11:29:13;98850.22;;;21.48;94.78
27840;BME280;15207;42.182;24.308;2022-07-09T11:31:51;98862.81;;;21.56;96.14
27840;BME280;15207;42.182;24.308;2022-07-09T11:34:18;98850.88;;;21.57;96.24
27840;BME280;15207;42.182;24.308;2022-07-09T11:36:51;98856.34;;;21.63;95.79
27840;BME280;15207;42.182;24.308;2022-07-09T11:41:54;98857.31;;;21.98;95.31
27840;BME280;15207;42.182;24.308;2022-07-09T11:44:24;98848.31;;;22.11;95.04
27840;BME280;15207;42.182;24.308;2022-07-09T11:49:38;98855.63;;;22.10;89.14
27840;BME280;15207;42.182;24.308;2022-07-09T11:52:25;98845.97;;;22.08;88.95
27840;BME280;15207;42.182;24.308;2022-07-09T11:55:20;98846.00;;;22.14;88.13
27840;BME280;15207;42.182;24.308;2022-07-09T11:57:54;98849.56;;;22.15;88.42
27840;BME280;15207;42.182;24.308;2022-07-09T12:00:25;98845.97;;;22.08;87.01
27840;BME280;15207;42.182;24.308;2022-07-09T12:02:51;98844.91;;;21.88;85.40
27840;BME280;15207;42.182;24.308;2022-07-09T12:05:30;98847.22;;;21.85;85.64
27840;BME280;15207;42.182;24.308;2022-07-09T12:07:58;98848.91;;;21.86;87.17
27840;BME280;15207;42.182;24.308;2022-07-09T12:10:29;98847.41;;;21.83;86.33
27840;BME280;15207;42.182;24.308;2022-07-09T12:12:56;98848.91;;;21.86;86.46
27840;BME280;15207;42.182;24.308;2022-07-09T12:15:21;98847.84;;;21.93;87.03
27840;BME280;15207;42.182;24.308;2022-07-09T12:17:52;98849.13;;;21.91;84.26
27840;BME280;15207;42.182;24.308;2022-07-09T12:20:18;98845.09;;;21.80;85.14
27840;BME280;15207;42.182;24.308;2022-07-09T12:22:43;98853.91;;;21.75;85.54
27840;BME280;15207;42.182;24.308;2022-07-09T12:25:09;98851.75;;;21.71;85.80
27840;BME280;15207;42.182;24.308;2022-07-09T12:27:35;98853.84;;;21.69;84.75
27840;BME280;15207;42.182;24.308;2022-07-09T12:30:00;98851.09;;;21.62;83.60
27840;BME280;15207;42.182;24.308;2022-07-09T12:32:26;98856.94;;;21.52;83.01
27840;BME280;15207;42.182;24.308;2022-07-09T12:34:52;98849.56;;;21.39;82.82
27840;BME280;15207;42.182;24.308;2022-07-09T12:37:18;98847.41;;;21.27;82.75
27840;BME280;15207;42.182;24.308;2022-07-09T12:39:43;98851.84;;;21.29;83.75
27840;BME280;15207;42.182;24.308;2022-07-09T12:42:09;98853.75;;;21.35;84.41
27840;BME280;15207;42.182;24.308;2022-07-09T12:44:34;98848.94;;;21.44;84.75
27840;BME280;15207;42.182;24.308;2022-07-09T12:47:00;98855.47;;;21.49;83.55
27840;BME280;15207;42.182;24.308;2022-07-09T12:49:26;98849.41;;;21.54;84.05
27840;BME280;15207;42.182;24.308;2022-07-09T12:51:51;98845.69;;;21.69;83.95
27840;BME280;15207;42.182;24.308;2022-07-09T12:54:17;98844.91;;;21.82;83.94
27840;BME280;15207;42.182;24.308;2022-07-09T12:56:42;98838.00;;;21.86;81.47